sensor_id;sensor_type;location;lat;lon;timestamp;P1;durP1;ratioP1;P2;durP2;ratioP2
81273;SDS011;70753;47.908;11.274;2023-12-28T00:00:47;4.68;;;1.33;;
81273;SDS011;70753;47.908;11.274;2023-12-28T00:03:13;3.65;;;1.52;;
81273;SDS011;70753;47.908;11.274;2023-12-28T00:05:38;2.67;;;1.27;;
81273;SDS011;70753;47.908;11.274;2023-12-28T00:08:04;2.90;;;1.20;;
81273;SDS011;70753;47.908;11.274;2023-12-28T00:10:29;3.22;;;1.20;;
81273;SDS011;70753;47.908;11.274;2023-12-28T00:12:54;3.20;;;1.30;;
81273;SDS011;70753;47.908;11.274;2023-12-28T00:15:21;2.72;;;1.20;;
81273;SDS011;70753;47.908;11.274;2023-12-28T00:17:48;3.42;;;1.52;;
81273;SDS011;70753;47.908;11.274;2023-12-28T00:20:13;3.60;;;1.30;;
81273;SDS011;70753;47.908;11.274;2023-12-28T00:22:39;1.65;;;0.90;;
81273;SDS011;70753;47.908;11.274;2023-12-28T00:25:04;2.88;;;1.00;;
81273;SDS011;70753;47.908;11.274;2023-12-28T00:27:30;2.58;;;1.10;;
81273;SDS011;70753;47.908;11.274;2023-12-28T00:29:56;1.75;;;1.08;;
81273;SDS011;70753;47.908;11.274;2023-12-28T00:32:21;4.75;;;1.40;;
81273;SDS011;70753;47.908;11.274;2023-12-28T00:34:48;3.67;;;1.23;;
81273;SDS011;70753;47.908;11.274;2023-12-28T00:37:13;1.58;;;0.82;;
81273;SDS011;70753;47.908;11.274;2023-12-28T00:39:39;1.65;;;0.80;;
81273;SDS011;70753;47.908;11.274;2023-12-28T00:42:04;1.83;;;0.90;;
81273;SDS011;70753;47.908;11.274;2023-12-28T00:44:29;2.13;;;0.90;;
81273;SDS011;70753;47.908;11.274;2023-12-28T00:46:55;2.25;;;1.00;;
81273;SDS011;70753;47.908;11.274;2023-12-28T00:49:20;1.77;;;0.95;;
81273;SDS011;70753;47.908;11.274;2023-12-28T00:51:48;1.58;;;0.90;;
81273;SDS011;70753;47.908;11.274;2023-12-28T00:54:13;2.03;;;0.95;;
81273;SDS011;70753;47.908;11.274;2023-12-28T00:56:38;2.03;;;0.93;;
81273;SDS011;70753;47.908;11.274;2023-12-28T00:59:05;2.53;;;1.00;;
81273;SDS011;70753;47.908;11.274;2023-12-28T01:01:31;2.05;;;0.85;;
81273;SDS011;70753;47.908;11.274;2023-12-28T01:03:56;2.90;;;1.10;;
81273;SDS011;70753;47.908;11.274;2023-12-28T01:06:22;2.92;;;1.00;;
81273;SDS011;70753;47.908;11.274;2023-12-28T01:08:49;2.25;;;1.05;;
81273;SDS011;70753;47.908;11.274;2023-12-28T01:11:14;2.42;;;0.95;;
81273;SDS011;70753;47.908;11.274;2023-12-28T01:13:39;1.80;;;1.10;;
81273;SDS011;70753;47.908;11.274;2023-12-28T01:16:06;1.58;;;0.80;;
81273;SDS011;70753;47.908;11.274;2023-12-28T01:18:31;2.05;;;0.90;;
81273;SDS011;70753;47.908;11.274;2023-12-28T01:20:57;2.53;;;1.00;;
81273;SDS011;70753;47.908;11.274;2023-12-28T01:23:22;1.38;;;0.73;;
81273;SDS011;70753;47.908;11.274;2023-12-28T01:25:49;2.17;;;1.00;;
81273;SDS011;70753;47.908;11.274;2023-12-28T01:28:14;2.17;;;1.00;;
81273;SDS011;70753;47.908;11.274;2023-12-28T01:30:40;2.78;;;1.10;;
81273;SDS011;70753;47.908;11.274;2023-12-28T01:33:06;2.05;;;0.80;;
81273;SDS011;70753;47.908;11.274;2023-12-28T01:35:31;2.22;;;1.02;;
81273;SDS011;70753;47.908;11.274;2023-12-28T01:37:56;1.98;;;1.00;;
81273;SDS011;70753;47.908;11.274;2023-12-28T01:40:22;1.35;;;0.70;;
81273;SDS011;70753;47.908;11.274;2023-12-28T01:42:48;1.45;;;0.73;;
81273;SDS011;70753;47.908;11.274;2023-12-28T01:45:14;2.35;;;0.80;;
81273;SDS011;70753;47.908;11.274;2023-12-28T01:47:40;1.98;;;0.93;;
81273;SDS011;70753;47.908;11.274;2023-12-28T01:50:06;1.63;;;0.90;;
81273;SDS011;70753;47.908;11.274;2023-12-28T01:52:32;3.42;;;1.13;;
81273;SDS011;70753;47.908;11.274;2023-12-28T01:54:59;2.95;;;1.13;;
81273;SDS011;70753;47.908;11.274;2023-12-28T01:57:25;2.83;;;1.10;;
81273;SDS011;70753;47.908;11.274;2023-12-28T01:59:52;3.03;;;1.10;;
81273;SDS011;70753;47.908;11.274;2023-12-28T02:02:18;3.15;;;1.20;;
81273;SDS011;70753;47.908;11.274;2023-12-28T02:04:44;3.20;;;0.90;;
81273;SDS011;70753;47.908;11.274;2023-12-28T02:07:10;2.75;;;1.00;;
81273;SDS011;70753;47.908;11.274;2023-12-28T02:09:36;3.03;;;1.23;;
81273;SDS011;70753;47.908;11.274;2023-12-28T02:12:02;2.58;;;1.20;;
81273;SDS011;70753;47.908;11.274;2023-12-28T02:14:28;3.08;;;1.38;;
81273;SDS011;70753;47.908;11.274;2023-12-28T02:16:56;4.72;;;1.30;;
81273;SDS011;70753;47.908;11.274;2023-12-28T02:19:31;4.68;;;1.33;;
81273;SDS011;70753;47.908;11.274;2023-12-28T02:22:01;3.58;;;1.30;;
81273;SDS011;70753;47.908;11.274;2023-12-28T02:24:28;3.70;;;1.55;;
81273;SDS011;70753;47.908;11.274;2023-12-28T02:26:54;3.42;;;1.50;;
81273;SDS011;70753;47.908;11.274;2023-12-28T02:29:20;2.90;;;1.10;;
81273;SDS011;70753;47.908;11.274;2023-12-28T02:31:46;3.50;;;1.52;;
81273;SDS011;70753;47.908;11.274;2023-12-28T02:34:19;2.85;;;1.25;;
81273;SDS011;70753;47.908;11.274;2023-12-28T02:36:51;4.05;;;1.30;;
81273;SDS011;70753;47.908;11.274;2023-12-28T02:39:17;3.03;;;1.33;;
81273;SDS011;70753;47.908;11.274;2023-12-28T02:41:45;3.25;;;1.30;;
81273;SDS011;70753;47.908;11.274;2023-12-28T02:44:12;3.85;;;1.40;;
81273;SDS011;70753;47.908;11.274;2023-12-28T02:46:38;2.40;;;1.27;;
81273;SDS011;70753;47.908;11.274;2023-12-28T02:49:03;2.35;;;1.10;;
81273;SDS011;70753;47.908;11.274;2023-12-28T02:51:29;1.83;;;0.90;;
81273;SDS011;70753;47.908;11.274;2023-12-28T02:53:54;2.22;;;1.02;;
81273;SDS011;70753;47.908;11.274;2023-12-28T02:56:19;2.35;;;1.17;;
81273;SDS011;70753;47.908;11.274;2023-12-28T02:58:45;1.90;;;1.00;;
81273;SDS011;70753;47.908;11.274;2023-12-28T03:01:11;2.38;;;0.90;;
81273;SDS011;70753;47.908;11.274;2023-12-28T03:03:37;2.72;;;0.93;;
81273;SDS011;70753;47.908;11.274;2023-12-28T03:06:02;2.05;;;0.90;;
81273;SDS011;70753;47.908;11.274;2023-12-28T03:08:28;3.00;;;0.90;;
81273;SDS011;70753;47.908;11.274;2023-12-28T03:10:54;2.17;;;0.73;;
81273;SDS011;70753;47.908;11.274;2023-12-28T03:13:19;1.80;;;1.00;;
81273;SDS011;70753;47.908;11.274;2023-12-28T03:15:45;2.40;;;1.00;;
81273;SDS011;70753;47.908;11.274;2023-12-28T03:18:11;1.55;;;0.88;;
81273;SDS011;70753;47.908;11.274;2023-12-28T03:20:37;2.38;;;1.10;;
81273;SDS011;70753;47.908;11.274;2023-12-28T03:23:02;2.30;;;1.23;;
81273;SDS011;70753;47.908;11.274;2023-12-28T03:25:28;1.67;;;0.95;;
81273;SDS011;70753;47.908;11.274;2023-12-28T03:27:53;5.43;;;1.92;;
81273;SDS011;70753;47.908;11.274;2023-12-28T03:30:18;26.08;;;8.23;;
81273;SDS011;70753;47.908;11.274;2023-12-28T03:32:45;14.18;;;5.40;;
81273;SDS011;70753;47.908;11.274;2023-12-28T03:35:12;10.82;;;3.20;;
81273;SDS011;70753;47.908;11.274;2023-12-28T03:37:37;10.48;;;4.00;;
81273;SDS011;70753;47.908;11.274;2023-12-28T03:40:05;10.77;;;3.80;;
81273;SDS011;70753;47.908;11.274;2023-12-28T03:42:32;7.18;;;2.60;;
81273;SDS011;70753;47.908;11.274;2023-12-28T03:44:58;8.18;;;3.10;;
81273;SDS011;70753;47.908;11.274;2023-12-28T03:47:23;13.77;;;3.90;;
81273;SDS011;70753;47.908;11.274;2023-12-28T03:49:49;9.88;;;3.92;;
81273;SDS011;70753;47.908;11.274;2023-12-28T03:52:16;8.70;;;2.90;;
81273;SDS011;70753;47.908;11.274;2023-12-28T03:54:41;10.82;;;3.70;;
81273;SDS011;70753;47.908;11.274;2023-12-28T03:57:06;9.68;;;3.45;;
81273;SDS011;70753;47.908;11.274;2023-12-28T03:59:32;13.20;;;5.47;;
81273;SDS011;70753;47.908;11.274;2023-12-28T04:01:57;14.00;;;6.43;;
81273;SDS011;70753;47.908;11.274;2023-12-28T04:04:23;21.58;;;9.63;;
81273;SDS011;70753;47.908;11.274;2023-12-28T04:06:48;28.58;;;11.93;;
81273;SDS011;70753;47.908;11.274;2023-12-28T04:09:15;33.90;;;13.50;;
81273;SDS011;70753;47.908;11.274;2023-12-28T04:11:41;43.20;;;19.13;;
81273;SDS011;70753;47.908;11.274;2023-12-28T04:14:06;43.70;;;19.70;;
81273;SDS011;70753;47.908;11.274;2023-12-28T04:16:32;39.88;;;17.52;;
81273;SDS011;70753;47.908;11.274;2023-12-28T04:18:57;24.45;;;11.00;;
81273;SDS011;70753;47.908;11.274;2023-12-28T04:21:22;10.40;;;5.15;;
81273;SDS011;70753;47.908;11.274;2023-12-28T04:23:48;7.30;;;3.58;;
81273;SDS011;70753;47.908;11.274;2023-12-28T04:26:17;7.55;;;3.30;;
81273;SDS011;70753;47.908;11.274;2023-12-28T04:28:43;6.90;;;2.85;;
81273;SDS011;70753;47.908;11.274;2023-12-28T04:31:08;6.95;;;2.72;;
81273;SDS011;70753;47.908;11.274;2023-12-28T04:33:34;7.10;;;2.08;;
81273;SDS011;70753;47.908;11.274;2023-12-28T04:36:00;8.13;;;2.95;;
81273;SDS011;70753;47.908;11.274;2023-12-28T04:38:25;3.75;;;1.73;;
81273;SDS011;70753;47.908;11.274;2023-12-28T04:40:51;3.53;;;1.30;;
81273;SDS011;70753;47.908;11.274;2023-12-28T04:43:18;5.32;;;1.80;;
81273;SDS011;70753;47.908;11.274;2023-12-28T04:45:43;3.42;;;1.30;;
81273;SDS011;70753;47.908;11.274;2023-12-28T04:48:08;3.10;;;1.27;;
81273;SDS011;70753;47.908;11.274;2023-12-28T04:50:34;3.95;;;1.25;;
81273;SDS011;70753;47.908;11.274;2023-12-28T04:53:00;4.78;;;1.10;;
81273;SDS011;70753;47.908;11.274;2023-12-28T04:55:25;2.75;;;1.20;;
81273;SDS011;70753;47.908;11.274;2023-12-28T04:57:52;3.03;;;1.17;;
81273;SDS011;70753;47.908;11.274;2023-12-28T05:00:18;2.90;;;1.00;;
81273;SDS011;70753;47.908;11.274;2023-12-28T05:02:45;3.47;;;1.10;;
81273;SDS011;70753;47.908;11.274;2023-12-28T05:05:11;1.95;;;1.08;;
81273;SDS011;70753;47.908;11.274;2023-12-28T05:07:37;4.32;;;1.27;;
81273;SDS011;70753;47.908;11.274;2023-12-28T05:10:03;6.82;;;1.48;;
81273;SDS011;70753;47.908;11.274;2023-12-28T05:12:28;4.97;;;1.00;;
81273;SDS011;70753;47.908;11.274;2023-12-28T05:14:54;2.97;;;1.10;;
81273;SDS011;70753;47.908;11.274;2023-12-28T05:17:21;2.40;;;1.00;;
81273;SDS011;70753;47.908;11.274;2023-12-28T05:19:46;2.88;;;1.10;;
81273;SDS011;70753;47.908;11.274;2023-12-28T05:22:12;2.97;;;1.20;;
81273;SDS011;70753;47.908;11.274;2023-12-28T05:24:37;2.92;;;1.25;;
81273;SDS011;70753;47.908;11.274;2023-12-28T05:27:02;1.98;;;1.00;;
81273;SDS011;70753;47.908;11.274;2023-12-28T05:29:28;3.67;;;1.10;;
81273;SDS011;70753;47.908;11.274;2023-12-28T05:31:53;2.75;;;1.27;;
81273;SDS011;70753;47.908;11.274;2023-12-28T05:34:20;4.13;;;1.17;;
81273;SDS011;70753;47.908;11.274;2023-12-28T05:36:47;1.98;;;1.00;;
81273;SDS011;70753;47.908;11.274;2023-12-28T05:39:12;3.83;;;1.50;;
81273;SDS011;70753;47.908;11.274;2023-12-28T05:41:37;3.17;;;1.30;;
81273;SDS011;70753;47.908;11.274;2023-12-28T05:44:03;3.22;;;1.30;;
81273;SDS011;70753;47.908;11.274;2023-12-28T05:46:28;2.20;;;1.05;;
81273;SDS011;70753;47.908;11.274;2023-12-28T05:48:54;3.08;;;1.20;;
81273;SDS011;70753;47.908;11.274;2023-12-28T05:51:21;3.15;;;1.30;;
81273;SDS011;70753;47.908;11.274;2023-12-28T05:53:46;3.05;;;1.52;;
81273;SDS011;70753;47.908;11.274;2023-12-28T05:56:11;3.92;;;1.40;;
81273;SDS011;70753;47.908;11.274;2023-12-28T05:58:37;2.80;;;1.30;;
81273;SDS011;70753;47.908;11.274;2023-12-28T06:01:02;3.42;;;1.30;;
81273;SDS011;70753;47.908;11.274;2023-12-28T06:03:28;3.45;;;1.33;;
81273;SDS011;70753;47.908;11.274;2023-12-28T06:05:53;4.88;;;1.40;;
81273;SDS011;70753;47.908;11.274;2023-12-28T06:08:21;4.35;;;1.50;;
81273;SDS011;70753;47.908;11.274;2023-12-28T06:10:46;4.45;;;1.30;;
81273;SDS011;70753;47.908;11.274;2023-12-28T06:13:12;3.20;;;1.30;;
81273;SDS011;70753;47.908;11.274;2023-12-28T06:15:37;5.45;;;1.55;;
81273;SDS011;70753;47.908;11.274;2023-12-28T06:18:03;2.90;;;1.10;;
81273;SDS011;70753;47.908;11.274;2023-12-28T06:20:29;2.38;;;1.10;;
81273;SDS011;70753;47.908;11.274;2023-12-28T06:22:54;4.38;;;1.10;;
81273;SDS011;70753;47.908;11.274;2023-12-28T06:25:22;2.83;;;1.50;;
81273;SDS011;70753;47.908;11.274;2023-12-28T06:27:47;3.45;;;1.17;;
81273;SDS011;70753;47.908;11.274;2023-12-28T06:30:13;4.03;;;1.70;;
81273;SDS011;70753;47.908;11.274;2023-12-28T06:32:39;3.22;;;1.50;;
81273;SDS011;70753;47.908;11.274;2023-12-28T06:35:05;3.80;;;1.40;;
81273;SDS011;70753;47.908;11.274;2023-12-28T06:37:31;2.97;;;1.45;;
81273;SDS011;70753;47.908;11.274;2023-12-28T06:39:57;3.75;;;1.92;;
81273;SDS011;70753;47.908;11.274;2023-12-28T06:42:24;4.43;;;1.73;;
81273;SDS011;70753;47.908;11.274;2023-12-28T06:44:50;4.80;;;2.10;;
81273;SDS011;70753;47.908;11.274;2023-12-28T06:47:16;4.75;;;2.15;;
81273;SDS011;70753;47.908;11.274;2023-12-28T06:49:41;4.00;;;1.92;;
81273;SDS011;70753;47.908;11.274;2023-12-28T06:52:07;4.25;;;1.77;;
81273;SDS011;70753;47.908;11.274;2023-12-28T06:54:32;2.40;;;1.10;;
81273;SDS011;70753;47.908;11.274;2023-12-28T06:56:57;3.88;;;1.05;;
81273;SDS011;70753;47.908;11.274;2023-12-28T06:59:25;1.63;;;0.85;;
81273;SDS011;70753;47.908;11.274;2023-12-28T07:01:51;2.17;;;1.20;;
81273;SDS011;70753;47.908;11.274;2023-12-28T07:04:17;2.30;;;0.90;;
81273;SDS011;70753;47.908;11.274;2023-12-28T07:06:42;2.00;;;0.98;;
81273;SDS011;70753;47.908;11.274;2023-12-28T07:09:08;3.10;;;1.17;;
81273;SDS011;70753;47.908;11.274;2023-12-28T07:11:33;2.97;;;1.20;;
81273;SDS011;70753;47.908;11.274;2023-12-28T07:13:59;2.50;;;1.10;;
81273;SDS011;70753;47.908;11.274;2023-12-28T07:16:26;3.20;;;1.00;;
81273;SDS011;70753;47.908;11.274;2023-12-28T07:18:51;2.80;;;1.10;;
81273;SDS011;70753;47.908;11.274;2023-12-28T07:21:17;2.90;;;1.00;;
81273;SDS011;70753;47.908;11.274;2023-12-28T07:23:42;3.00;;;1.05;;
81273;SDS011;70753;47.908;11.274;2023-12-28T07:26:07;4.72;;;1.08;;
81273;SDS011;70753;47.908;11.274;2023-12-28T07:28:33;3.00;;;1.10;;
81273;SDS011;70753;47.908;11.274;2023-12-28T07:30:58;2.45;;;1.10;;
81273;SDS011;70753;47.908;11.274;2023-12-28T07:33:25;2.60;;;1.20;;
81273;SDS011;70753;47.908;11.274;2023-12-28T07:35:50;4.00;;;1.33;;
81273;SDS011;70753;47.908;11.274;2023-12-28T07:38:16;4.10;;;1.60;;
81273;SDS011;70753;47.908;11.274;2023-12-28T07:40:41;4.90;;;1.50;;
81273;SDS011;70753;47.908;11.274;2023-12-28T07:43:07;4.75;;;1.45;;
81273;SDS011;70753;47.908;11.274;2023-12-28T07:45:32;3.67;;;1.30;;
81273;SDS011;70753;47.908;11.274;2023-12-28T07:47:58;3.10;;;1.30;;
81273;SDS011;70753;47.908;11.274;2023-12-28T07:50:26;3.40;;;1.50;;
81273;SDS011;70753;47.908;11.274;2023-12-28T07:52:51;3.95;;;1.42;;
81273;SDS011;70753;47.908;11.274;2023-12-28T07:55:16;4.30;;;1.63;;
81273;SDS011;70753;47.908;11.274;2023-12-28T07:57:42;4.03;;;1.40;;
81273;SDS011;70753;47.908;11.274;2023-12-28T08:00:08;3.40;;;1.77;;
81273;SDS011;70753;47.908;11.274;2023-12-28T08:02:33;4.05;;;1.45;;
81273;SDS011;70753;47.908;11.274;2023-12-28T08:05:00;3.88;;;1.33;;
81273;SDS011;70753;47.908;11.274;2023-12-28T08:07:27;3.83;;;1.30;;
81273;SDS011;70753;47.908;11.274;2023-12-28T08:09:52;4.70;;;1.60;;
81273;SDS011;70753;47.908;11.274;2023-12-28T08:12:18;4.90;;;2.08;;
81273;SDS011;70753;47.908;11.274;2023-12-28T08:14:43;5.13;;;1.50;;
81273;SDS011;70753;47.908;11.274;2023-12-28T08:17:08;3.65;;;1.60;;
81273;SDS011;70753;47.908;11.274;2023-12-28T08:19:34;4.22;;;1.80;;
81273;SDS011;70753;47.908;11.274;2023-12-28T08:21:59;4.88;;;2.03;;
81273;SDS011;70753;47.908;11.274;2023-12-28T08:24:26;4.63;;;2.03;;
81273;SDS011;70753;47.908;11.274;2023-12-28T08:26:52;4.95;;;2.30;;
81273;SDS011;70753;47.908;11.274;2023-12-28T08:29:17;4.63;;;2.10;;
81273;SDS011;70753;47.908;11.274;2023-12-28T08:31:42;5.22;;;1.98;;
81273;SDS011;70753;47.908;11.274;2023-12-28T08:34:08;5.25;;;2.13;;
81273;SDS011;70753;47.908;11.274;2023-12-28T08:36:33;5.25;;;2.10;;
81273;SDS011;70753;47.908;11.274;2023-12-28T08:38:59;4.55;;;2.08;;
81273;SDS011;70753;47.908;11.274;2023-12-28T08:41:25;5.15;;;2.08;;
81273;SDS011;70753;47.908;11.274;2023-12-28T08:43:51;3.40;;;1.35;;
81273;SDS011;70753;47.908;11.274;2023-12-28T08:46:17;3.42;;;1.30;;
81273;SDS011;70753;47.908;11.274;2023-12-28T08:48:42;2.83;;;1.40;;
81273;SDS011;70753;47.908;11.274;2023-12-28T08:51:09;4.53;;;1.52;;
81273;SDS011;70753;47.908;11.274;2023-12-28T08:53:34;3.38;;;1.35;;
81273;SDS011;70753;47.908;11.274;2023-12-28T08:56:00;3.25;;;1.20;;
81273;SDS011;70753;47.908;11.274;2023-12-28T08:58:27;5.00;;;1.40;;
81273;SDS011;70753;47.908;11.274;2023-12-28T09:00:52;3.97;;;1.40;;
81273;SDS011;70753;47.908;11.274;2023-12-28T09:03:17;3.78;;;1.40;;
81273;SDS011;70753;47.908;11.274;2023-12-28T09:05:43;3.70;;;1.30;;
81273;SDS011;70753;47.908;11.274;2023-12-28T09:08:08;3.80;;;1.17;;
81273;SDS011;70753;47.908;11.274;2023-12-28T09:10:33;2.72;;;1.30;;
81273;SDS011;70753;47.908;11.274;2023-12-28T09:12:59;3.38;;;1.10;;
81273;SDS011;70753;47.908;11.274;2023-12-28T09:15:26;3.25;;;1.30;;
81273;SDS011;70753;47.908;11.274;2023-12-28T09:17:51;3.10;;;1.25;;
81273;SDS011;70753;47.908;11.274;2023-12-28T09:20:16;2.75;;;1.00;;
81273;SDS011;70753;47.908;11.274;2023-12-28T09:22:42;2.05;;;1.10;;
81273;SDS011;70753;47.908;11.274;2023-12-28T09:25:08;2.60;;;1.10;;
81273;SDS011;70753;47.908;11.274;2023-12-28T09:27:33;2.63;;;1.00;;
81273;SDS011;70753;47.908;11.274;2023-12-28T09:29:59;2.20;;;0.90;;
81273;SDS011;70753;47.908;11.274;2023-12-28T09:32:26;2.38;;;0.93;;
81273;SDS011;70753;47.908;11.274;2023-12-28T09:34:52;5.88;;;1.30;;
81273;SDS011;70753;47.908;11.274;2023-12-28T09:37:17;4.63;;;1.30;;
81273;SDS011;70753;47.908;11.274;2023-12-28T09:39:42;3.17;;;1.30;;
81273;SDS011;70753;47.908;11.274;2023-12-28T09:42:09;3.33;;;1.50;;
81273;SDS011;70753;47.908;11.274;2023-12-28T09:44:41;2.20;;;1.08;;
81273;SDS011;70753;47.908;11.274;2023-12-28T09:47:08;2.17;;;1.05;;
81273;SDS011;70753;47.908;11.274;2023-12-28T09:49:35;2.13;;;0.90;;
81273;SDS011;70753;47.908;11.274;2023-12-28T09:52:02;2.75;;;0.95;;
81273;SDS011;70753;47.908;11.274;2023-12-28T09:54:28;2.00;;;0.75;;
81273;SDS011;70753;47.908;11.274;2023-12-28T09:56:53;1.85;;;0.85;;
81273;SDS011;70753;47.908;11.274;2023-12-28T09:59:19;1.63;;;0.90;;
81273;SDS011;70753;47.908;11.274;2023-12-28T10:01:45;3.42;;;1.58;;
81273;SDS011;70753;47.908;11.274;2023-12-28T10:04:12;3.45;;;0.90;;
81273;SDS011;70753;47.908;11.274;2023-12-28T10:06:40;2.40;;;0.90;;
81273;SDS011;70753;47.908;11.274;2023-12-28T10:09:05;0.93;;;0.70;;
81273;SDS011;70753;47.908;11.274;2023-12-28T10:11:31;1.48;;;0.80;;
81273;SDS011;70753;47.908;11.274;2023-12-28T10:13:58;1.27;;;0.60;;
81273;SDS011;70753;47.908;11.274;2023-12-28T10:16:24;2.83;;;0.90;;
81273;SDS011;70753;47.908;11.274;2023-12-28T10:18:49;1.60;;;0.80;;
81273;SDS011;70753;47.908;11.274;2023-12-28T10:21:15;3.00;;;0.93;;
81273;SDS011;70753;47.908;11.274;2023-12-28T10:23:42;2.03;;;1.00;;
81273;SDS011;70753;47.908;11.274;2023-12-28T10:26:08;2.20;;;0.75;;
81273;SDS011;70753;47.908;11.274;2023-12-28T10:28:34;2.40;;;0.82;;
81273;SDS011;70753;47.908;11.274;2023-12-28T10:31:00;2.42;;;0.90;;
81273;SDS011;70753;47.908;11.274;2023-12-28T10:33:27;2.65;;;0.82;;
81273;SDS011;70753;47.908;11.274;2023-12-28T10:35:52;2.15;;;0.93;;
81273;SDS011;70753;47.908;11.274;2023-12-28T10:38:21;2.30;;;0.80;;
81273;SDS011;70753;47.908;11.274;2023-12-28T10:40:51;1.83;;;0.80;;
81273;SDS011;70753;47.908;11.274;2023-12-28T10:43:17;2.67;;;1.00;;
81273;SDS011;70753;47.908;11.274;2023-12-28T10:45:46;3.40;;;0.95;;
81273;SDS011;70753;47.908;11.274;2023-12-28T10:48:14;2.50;;;1.00;;
81273;SDS011;70753;47.908;11.274;2023-12-28T10:50:47;3.25;;;1.10;;
81273;SDS011;70753;47.908;11.274;2023-12-28T10:53:17;1.95;;;1.00;;
81273;SDS011;70753;47.908;11.274;2023-12-28T10:55:56;3.13;;;1.10;;
81273;SDS011;70753;47.908;11.274;2023-12-28T10:58:31;1.98;;;0.80;;
81273;SDS011;70753;47.908;11.274;2023-12-28T11:01:03;2.70;;;1.05;;
81273;SDS011;70753;47.908;11.274;2023-12-28T11:03:33;2.92;;;1.35;;
81273;SDS011;70753;47.908;11.274;2023-12-28T11:06:02;2.38;;;0.85;;
81273;SDS011;70753;47.908;11.274;2023-12-28T11:08:29;2.35;;;1.10;;
81273;SDS011;70753;47.908;11.274;2023-12-28T11:10:59;1.45;;;0.85;;
81273;SDS011;70753;47.908;11.274;2023-12-28T11:13:25;2.92;;;1.15;;
81273;SDS011;70753;47.908;11.274;2023-12-28T11:15:53;3.20;;;1.08;;
81273;SDS011;70753;47.908;11.274;2023-12-28T11:18:20;1.17;;;0.75;;
81273;SDS011;70753;47.908;11.274;2023-12-28T11:20:46;3.60;;;1.10;;
81273;SDS011;70753;47.908;11.274;2023-12-28T11:23:14;2.17;;;0.90;;
81273;SDS011;70753;47.908;11.274;2023-12-28T11:25:40;1.85;;;0.90;;
81273;SDS011;70753;47.908;11.274;2023-12-28T11:28:10;3.17;;;1.20;;
81273;SDS011;70753;47.908;11.274;2023-12-28T11:30:36;2.08;;;0.90;;
81273;SDS011;70753;47.908;11.274;2023-12-28T11:33:04;2.92;;;1.13;;
81273;SDS011;70753;47.908;11.274;2023-12-28T11:35:33;3.10;;;1.20;;
81273;SDS011;70753;47.908;11.274;2023-12-28T11:37:59;4.05;;;1.30;;
81273;SDS011;70753;47.908;11.274;2023-12-28T11:40:28;2.95;;;1.10;;
81273;SDS011;70753;47.908;11.274;2023-12-28T11:42:54;4.07;;;1.33;;
81273;SDS011;70753;47.908;11.274;2023-12-28T11:45:21;6.30;;;1.95;;
81273;SDS011;70753;47.908;11.274;2023-12-28T11:47:58;8.98;;;2.70;;
81273;SDS011;70753;47.908;11.274;2023-12-28T11:50:23;4.65;;;1.40;;
81273;SDS011;70753;47.908;11.274;2023-12-28T11:52:49;3.72;;;1.30;;
81273;SDS011;70753;47.908;11.274;2023-12-28T11:55:20;3.60;;;1.30;;
81273;SDS011;70753;47.908;11.274;2023-12-28T11:57:46;2.80;;;1.25;;
81273;SDS011;70753;47.908;11.274;2023-12-28T12:00:11;3.25;;;1.45;;
81273;SDS011;70753;47.908;11.274;2023-12-28T12:02:42;5.00;;;1.73;;
81273;SDS011;70753;47.908;11.274;2023-12-28T12:05:09;6.55;;;2.42;;
81273;SDS011;70753;47.908;11.274;2023-12-28T12:07:34;8.57;;;3.42;;
81273;SDS011;70753;47.908;11.274;2023-12-28T12:10:01;6.40;;;2.75;;
81273;SDS011;70753;47.908;11.274;2023-12-28T12:12:26;5.75;;;2.20;;
81273;SDS011;70753;47.908;11.274;2023-12-28T12:14:52;3.03;;;1.55;;
81273;SDS011;70753;47.908;11.274;2023-12-28T12:17:17;3.40;;;1.27;;
81273;SDS011;70753;47.908;11.274;2023-12-28T12:19:44;3.13;;;1.50;;
81273;SDS011;70753;47.908;11.274;2023-12-28T12:22:10;4.85;;;1.50;;
81273;SDS011;70753;47.908;11.274;2023-12-28T12:24:35;4.25;;;1.90;;
81273;SDS011;70753;47.908;11.274;2023-12-28T12:27:02;5.65;;;1.60;;
81273;SDS011;70753;47.908;11.274;2023-12-28T12:29:29;4.93;;;1.80;;
81273;SDS011;70753;47.908;11.274;2023-12-28T12:31:54;3.50;;;1.65;;
81273;SDS011;70753;47.908;11.274;2023-12-28T12:34:21;6.40;;;2.35;;
81273;SDS011;70753;47.908;11.274;2023-12-28T12:36:49;7.72;;;3.38;;
81273;SDS011;70753;47.908;11.274;2023-12-28T12:39:15;9.68;;;4.10;;
81273;SDS011;70753;47.908;11.274;2023-12-28T12:41:41;8.35;;;3.45;;
81273;SDS011;70753;47.908;11.274;2023-12-28T12:44:07;8.38;;;3.70;;
81273;SDS011;70753;47.908;11.274;2023-12-28T12:46:33;13.13;;;6.40;;
81273;SDS011;70753;47.908;11.274;2023-12-28T12:48:58;11.10;;;4.68;;
81273;SDS011;70753;47.908;11.274;2023-12-28T12:51:26;13.80;;;5.82;;
81273;SDS011;70753;47.908;11.274;2023-12-28T12:53:56;11.00;;;4.88;;
81273;SDS011;70753;47.908;11.274;2023-12-28T12:56:22;10.75;;;4.78;;
81273;SDS011;70753;47.908;11.274;2023-12-28T12:58:48;10.80;;;4.60;;
81273;SDS011;70753;47.908;11.274;2023-12-28T13:01:14;5.28;;;2.08;;
81273;SDS011;70753;47.908;11.274;2023-12-28T13:03:39;5.40;;;2.00;;
81273;SDS011;70753;47.908;11.274;2023-12-28T13:06:05;4.07;;;2.00;;
81273;SDS011;70753;47.908;11.274;2023-12-28T13:08:30;6.43;;;2.92;;
81273;SDS011;70753;47.908;11.274;2023-12-28T13:10:58;6.38;;;2.35;;
81273;SDS011;70753;47.908;11.274;2023-12-28T13:13:23;6.05;;;2.17;;
81273;SDS011;70753;47.908;11.274;2023-12-28T13:15:48;6.00;;;2.47;;
81273;SDS011;70753;47.908;11.274;2023-12-28T13:18:14;8.38;;;4.00;;
81273;SDS011;70753;47.908;11.274;2023-12-28T13:20:40;4.47;;;1.80;;
81273;SDS011;70753;47.908;11.274;2023-12-28T13:23:06;4.40;;;2.03;;
81273;SDS011;70753;47.908;11.274;2023-12-28T13:25:32;4.55;;;1.98;;
81273;SDS011;70753;47.908;11.274;2023-12-28T13:27:59;6.15;;;1.77;;
81273;SDS011;70753;47.908;11.274;2023-12-28T13:30:25;3.13;;;1.50;;
81273;SDS011;70753;47.908;11.274;2023-12-28T13:32:50;5.10;;;1.60;;
81273;SDS011;70753;47.908;11.274;2023-12-28T13:35:15;3.90;;;1.75;;
81273;SDS011;70753;47.908;11.274;2023-12-28T13:37:41;3.47;;;1.50;;
81273;SDS011;70753;47.908;11.274;2023-12-28T13:40:06;3.05;;;1.30;;
81273;SDS011;70753;47.908;11.274;2023-12-28T13:42:33;3.83;;;1.42;;
81273;SDS011;70753;47.908;11.274;2023-12-28T13:45:01;3.78;;;1.70;;
81273;SDS011;70753;47.908;11.274;2023-12-28T13:47:26;5.88;;;2.42;;
81273;SDS011;70753;47.908;11.274;2023-12-28T13:49:51;6.05;;;2.80;;
81273;SDS011;70753;47.908;11.274;2023-12-28T13:52:17;5.35;;;1.92;;
81273;SDS011;70753;47.908;11.274;2023-12-28T13:54:43;2.92;;;1.13;;
81273;SDS011;70753;47.908;11.274;2023-12-28T13:57:08;2.17;;;0.90;;
81273;SDS011;70753;47.908;11.274;2023-12-28T13:59:34;5.03;;;1.73;;
81273;SDS011;70753;47.908;11.274;2023-12-28T14:02:01;2.63;;;1.10;;
81273;SDS011;70753;47.908;11.274;2023-12-28T14:04:27;3.67;;;1.20;;
81273;SDS011;70753;47.908;11.274;2023-12-28T14:06:53;3.35;;;1.20;;
81273;SDS011;70753;47.908;11.274;2023-12-28T14:09:18;3.38;;;1.10;;
81273;SDS011;70753;47.908;11.274;2023-12-28T14:11:44;3.17;;;1.10;;
81273;SDS011;70753;47.908;11.274;2023-12-28T14:14:10;3.20;;;1.10;;
81273;SDS011;70753;47.908;11.274;2023-12-28T14:16:35;2.28;;;0.93;;
81273;SDS011;70753;47.908;11.274;2023-12-28T14:19:02;3.63;;;1.20;;
81273;SDS011;70753;47.908;11.274;2023-12-28T14:21:28;3.45;;;1.25;;
81273;SDS011;70753;47.908;11.274;2023-12-28T14:23:54;3.00;;;1.30;;
81273;SDS011;70753;47.908;11.274;2023-12-28T14:26:19;4.47;;;1.52;;